Time;durP1;ratioP1;P1;durP2;ratioP2;P2;SDS_P1;SDS_P2;PMS_P1;PMS_P2;Temp;Humidity;BMP_temperature;BMP_pressure;BME280_temperature;BME280_humidity;BME280_pressure;Samples;Min_cycle;Max_cycle;Signal;HPM_P1;HPM_P2
2023/09/11 00:01:46;;;;;;;12.13;8.67;;;18.80;99.90;;;;;;4184001;28;20700;-76
2023/09/11 00:03:49;;;;;;;11.80;8.75;;;18.80;99.90;;;;;;4195936;28;20210;-75
2023/09/11 00:05:53;;;;;;;14.23;9.00;;;18.70;99.90;;;;;;4189295;28;20206;-76
2023/09/11 00:07:54;;;;;;;12.77;8.70;;;18.70;99.90;;;;;;4192610;28;20210;-76
2023/09/11 00:09:56;;;;;;;12.70;8.40;;;18.70;99.90;;;;;;4179386;28;20280;-76
2023/09/11 00:11:58;;;;;;;11.50;8.50;;;18.70;99.90;;;;;;4185260;28;20699;-77
2023/09/11 00:14:00;;;;;;;12.83;8.40;;;18.70;99.90;;;;;;4187202;28;20256;-76
2023/09/11 00:16:02;;;;;;;12.00;8.73;;;18.60;99.90;;;;;;4186298;28;20201;-77
2023/09/11 00:18:04;;;;;;;14.07;8.13;;;18.60;99.90;;;;;;4188465;28;20203;-76
2023/09/11 00:20:09;;;;;;;11.83;8.93;;;18.60;99.90;;;;;;4189950;28;20302;-76
2023/09/11 00:22:12;;;;;;;12.53;8.70;;;18.60;99.90;;;;;;4184020;28;20241;-76
2023/09/11 00:24:14;;;;;;;14.33;8.97;;;18.50;99.90;;;;;;4183057;28;20221;-76
2023/09/11 00:26:15;;;;;;;11.73;8.30;;;18.50;99.90;;;;;;4189534;28;20224;-77
2023/09/11 00:28:17;;;;;;;13.30;8.73;;;18.50;99.90;;;;;;4184455;28;20206;-74
2023/09/11 00:30:19;;;;;;;10.90;8.17;;;18.50;99.90;;;;;;4185766;28;20210;-76
2023/09/11 00:32:21;;;;;;;12.97;8.70;;;18.40;99.90;;;;;;4187134;28;20275;-76
2023/09/11 00:34:23;;;;;;;12.53;8.17;;;18.40;99.90;;;;;;4187144;28;20205;-77
2023/09/11 00:36:27;;;;;;;12.60;8.80;;;18.40;99.90;;;;;;4185788;28;20204;-77
2023/09/11 00:38:30;;;;;;;13.20;9.00;;;18.40;99.90;;;;;;4187052;28;20210;-77
2023/09/11 00:40:32;;;;;;;11.23;8.40;;;18.40;99.90;;;;;;4183466;28;20835;-77
2023/09/11 00:42:37;;;;;;;12.73;8.53;;;18.40;99.90;;;;;;4188995;28;20256;-76
2023/09/11 00:44:38;;;;;;;11.33;8.03;;;18.30;99.90;;;;;;4184828;28;20641;-76
2023/09/11 00:46:40;;;;;;;14.23;9.03;;;18.30;99.90;;;;;;4187756;28;20213;-77
2023/09/11 00:48:42;;;;;;;13.33;8.33;;;18.30;99.90;;;;;;4187087;28;20591;-76
2023/09/11 00:50:45;;;;;;;11.83;8.40;;;18.30;99.90;;;;;;4185064;28;20207;-77
2023/09/11 00:52:47;;;;;;;10.93;8.47;;;18.20;99.90;;;;;;4189264;28;20348;-77
2023/09/11 00:54:52;;;;;;;11.63;8.27;;;18.20;99.90;;;;;;4184369;28;20254;-77
2023/09/11 00:56:55;;;;;;;13.00;8.50;;;18.20;99.90;;;;;;4182485;28;20712;-76
2023/09/11 00:58:57;;;;;;;15.47;8.73;;;18.20;99.90;;;;;;4186910;28;20282;-77
2023/09/11 01:00:59;;;;;;;13.53;8.70;;;18.20;99.90;;;;;;4184556;28;20255;-77
2023/09/11 01:03:01;;;;;;;11.07;8.10;;;18.20;99.90;;;;;;4187102;28;20210;-76
2023/09/11 01:05:07;;;;;;;12.00;8.40;;;18.20;99.90;;;;;;4189556;28;20291;-75
2023/09/11 01:07:09;;;;;;;14.67;8.97;;;18.10;99.90;;;;;;4184507;28;20217;-77
2023/09/11 01:09:11;;;;;;;12.97;8.77;;;18.10;99.90;;;;;;4184026;28;20233;-77
2023/09/11 01:11:14;;;;;;;12.40;8.70;;;18.10;99.90;;;;;;4184590;28;20267;-76
2023/09/11 01:13:16;;;;;;;11.93;8.63;;;18.10;99.90;;;;;;4185977;28;20256;-76
2023/09/11 01:15:18;;;;;;;12.97;8.23;;;18.00;99.90;;;;;;4190424;28;20202;-77
2023/09/11 01:17:30;;;;;;;14.33;9.00;;;18.00;99.90;;;;;;4181076;28;20257;-76
2023/09/11 01:20:08;;;;;;;12.00;8.17;;;18.00;99.90;;;;;;4187999;28;20237;-76
2023/09/11 01:22:42;;;;;;;11.10;8.37;;;18.00;99.90;;;;;;4185245;28;20205;-75
2023/09/11 01:24:58;;;;;;;12.13;8.00;;;17.90;99.90;;;;;;4187958;28;20214;-76
2023/09/11 01:27:35;;;;;;;12.37;8.70;;;17.90;99.90;;;;;;4186758;28;20202;-76
2023/09/11 01:29:41;;;;;;;17.03;8.10;;;17.90;99.90;;;;;;4186914;28;20287;-76
2023/09/11 01:31:45;;;;;;;15.33;8.30;;;17.90;99.90;;;;;;4185304;28;20199;-76
2023/09/11 01:33:53;;;;;;;11.53;8.17;;;17.90;99.90;;;;;;4185130;28;20717;-76
2023/09/11 01:35:55;;;;;;;14.07;8.23;;;17.90;99.90;;;;;;4187062;28;20617;-76
2023/09/11 01:37:58;;;;;;;13.93;8.10;;;17.80;99.90;;;;;;4183714;28;20736;-76
2023/09/11 01:40:00;;;;;;;13.77;7.93;;;17.80;99.90;;;;;;4182600;28;20233;-77
2023/09/11 01:42:08;;;;;;;10.00;7.33;;;17.80;99.90;;;;;;4186661;28;20209;-76
2023/09/11 01:44:15;;;;;;;12.63;8.50;;;17.80;99.90;;;;;;4184233;28;20218;-76
2023/09/11 01:46:20;;;;;;;11.60;8.30;;;17.80;99.90;;;;;;4182806;28;20221;-76
2023/09/11 01:48:23;;;;;;;14.47;8.80;;;17.80;99.90;;;;;;4184067;28;20209;-77
2023/09/11 01:50:26;;;;;;;11.37;8.30;;;17.80;99.90;;;;;;4186579;28;20263;-76
2023/09/11 01:52:29;;;;;;;11.07;7.80;;;17.80;99.90;;;;;;4186072;28;20205;-76
2023/09/11 01:54:33;;;;;;;12.43;8.33;;;17.70;99.90;;;;;;4181604;28;20205;-76
2023/09/11 01:56:35;;;;;;;12.40;8.00;;;17.70;99.90;;;;;;4183173;28;20248;-76
2023/09/11 01:58:37;;;;;;;14.00;7.87;;;17.70;99.90;;;;;;4183106;28;20283;-75
2023/09/11 02:00:39;;;;;;;11.47;8.03;;;17.60;99.90;;;;;;4182552;28;20327;-76
2023/09/11 02:02:42;;;;;;;11.77;7.47;;;17.60;99.90;;;;;;4182921;28;20214;-76
2023/09/11 02:04:45;;;;;;;10.53;7.73;;;17.60;99.90;;;;;;4185842;28;20255;-76
2023/09/11 02:06:47;;;;;;;15.07;8.27;;;17.60;99.90;;;;;;4186266;28;20222;-77
2023/09/11 02:08:49;;;;;;;12.57;7.80;;;17.60;99.90;;;;;;4184871;28;20228;-75
2023/09/11 02:10:53;;;;;;;12.33;8.00;;;17.50;99.90;;;;;;4183176;28;20213;-75
2023/09/11 02:12:55;;;;;;;10.00;7.03;;;17.50;99.90;;;;;;4183644;28;20221;-76
2023/09/11 02:14:57;;;;;;;12.30;8.23;;;17.50;99.90;;;;;;4184324;28;20725;-75
2023/09/11 02:17:02;;;;;;;12.87;8.17;;;17.50;99.90;;;;;;4183596;28;20205;-77
2023/09/11 02:19:06;;;;;;;13.10;8.37;;;17.50;99.90;;;;;;4185243;28;20236;-77
2023/09/11 02:21:07;;;;;;;12.90;8.67;;;17.50;99.90;;;;;;4185135;28;20212;-75
2023/09/11 02:23:09;;;;;;;12.53;8.20;;;17.50;99.90;;;;;;4185614;28;20631;-76
2023/09/11 02:25:10;;;;;;;11.63;8.67;;;17.50;99.90;;;;;;4186697;28;20229;-76
2023/09/11 02:27:12;;;;;;;15.83;8.77;;;17.50;99.90;;;;;;4188379;28;20208;-76
2023/09/11 02:29:14;;;;;;;12.80;7.73;;;17.50;99.90;;;;;;4186920;28;20241;-77
2023/09/11 02:31:16;;;;;;;11.10;8.00;;;17.40;99.90;;;;;;4187756;28;20253;-77
2023/09/11 02:33:18;;;;;;;11.87;8.00;;;17.40;99.90;;;;;;4188772;28;20256;-76
2023/09/11 02:35:21;;;;;;;13.93;7.80;;;17.40;99.90;;;;;;4204558;28;20602;-75
2023/09/11 02:37:23;;;;;;;13.60;8.20;;;17.40;99.90;;;;;;4190762;28;20216;-76
2023/09/11 02:39:25;;;;;;;14.80;7.77;;;17.40;99.90;;;;;;4189963;28;20233;-77
2023/09/11 02:41:27;;;;;;;11.37;7.60;;;17.40;99.90;;;;;;4185418;28;20198;-76
2023/09/11 02:43:29;;;;;;;13.57;8.00;;;17.40;99.90;;;;;;4189407;28;20250;-75
2023/09/11 02:45:31;;;;;;;15.43;8.10;;;17.40;99.90;;;;;;4183649;28;20275;-76
2023/09/11 02:47:33;;;;;;;12.70;7.80;;;17.40;99.90;;;;;;4184726;28;20216;-75
2023/09/11 02:49:35;;;;;;;11.97;7.83;;;17.40;99.90;;;;;;4187084;28;20217;-75
2023/09/11 02:51:38;;;;;;;15.17;7.73;;;17.40;99.90;;;;;;4188179;28;20268;-76
2023/09/11 02:53:40;;;;;;;12.83;8.27;;;17.40;99.90;;;;;;4189081;28;20719;-76
2023/09/11 02:55:42;;;;;;;15.10;8.77;;;17.40;99.90;;;;;;4188423;28;20206;-76
2023/09/11 02:57:44;;;;;;;11.20;8.30;;;17.40;99.90;;;;;;4188587;28;20221;-76
2023/09/11 02:59:46;;;;;;;12.40;8.80;;;17.40;99.90;;;;;;4187611;28;20224;-76
2023/09/11 03:01:48;;;;;;;12.07;8.27;;;17.40;99.90;;;;;;4188922;28;20270;-76
2023/09/11 03:03:50;;;;;;;12.03;7.60;;;17.30;99.90;;;;;;4189101;28;20252;-76
2023/09/11 03:05:55;;;;;;;12.03;7.90;;;17.30;99.90;;;;;;4183359;28;20693;-76
2023/09/11 03:07:59;;;;;;;11.57;8.10;;;17.30;99.90;;;;;;4184431;28;20201;-76
2023/09/11 03:10:03;;;;;;;13.50;8.07;;;17.30;99.90;;;;;;4188992;28;20241;-75
2023/09/11 03:12:05;;;;;;;12.00;8.10;;;17.30;99.90;;;;;;4187911;28;20205;-76
2023/09/11 03:14:11;;;;;;;10.30;7.97;;;17.30;99.90;;;;;;4187689;28;20604;-75
2023/09/11 03:16:15;;;;;;;12.00;8.33;;;17.30;99.90;;;;;;4187217;28;20205;-75
2023/09/11 03:18:17;;;;;;;16.47;8.80;;;17.30;99.90;;;;;;4189369;28;20722;-76
2023/09/11 03:20:19;;;;;;;13.87;9.20;;;17.30;99.90;;;;;;4188285;28;20262;-77
2023/09/11 03:22:22;;;;;;;13.97;8.37;;;17.30;99.90;;;;;;4186976;28;20217;-75
2023/09/11 03:24:25;;;;;;;11.67;8.00;;;17.30;99.90;;;;;;4187421;28;20250;-77
2023/09/11 03:26:30;;;;;;;13.90;8.43;;;17.30;99.90;;;;;;4187022;28;20792;-76
2023/09/11 03:28:32;;;;;;;10.97;8.13;;;17.20;99.90;;;;;;4184533;28;20248;-77
2023/09/11 03:30:35;;;;;;;14.27;9.50;;;17.20;99.90;;;;;;4187461;28;20204;-76
2023/09/11 03:32:37;;;;;;;14.57;8.90;;;17.20;99.90;;;;;;4184694;28;20690;-75
2023/09/11 03:34:38;;;;;;;14.67;9.50;;;17.20;99.90;;;;;;4185420;28;20287;-75
2023/09/11 03:36:40;;;;;;;12.17;8.57;;;17.20;99.90;;;;;;4190199;28;20218;-74
2023/09/11 03:38:41;;;;;;;13.17;8.57;;;17.10;99.90;;;;;;4189793;28;20240;-75
2023/09/11 03:40:47;;;;;;;13.80;8.80;;;17.10;99.90;;;;;;4187679;28;20208;-75
2023/09/11 03:42:49;;;;;;;11.73;8.40;;;17.10;99.90;;;;;;4186955;28;20208;-75
2023/09/11 03:44:50;;;;;;;10.70;8.50;;;17.10;99.90;;;;;;4187834;28;20210;-75
2023/09/11 03:46:52;;;;;;;12.60;8.43;;;17.00;99.90;;;;;;4187567;28;20214;-76
2023/09/11 03:48:54;;;;;;;10.40;7.10;;;17.00;99.90;;;;;;4180803;28;20824;-75
2023/09/11 03:50:57;;;;;;;11.27;7.47;;;16.90;99.90;;;;;;4187126;28;20237;-75
2023/09/11 03:52:58;;;;;;;12.07;7.77;;;16.90;99.90;;;;;;4188234;28;20205;-75
2023/09/11 03:55:00;;;;;;;10.77;7.97;;;16.90;99.90;;;;;;4187334;28;20193;-75
2023/09/11 03:57:03;;;;;;;12.30;7.77;;;16.80;99.90;;;;;;4187819;28;20769;-74
2023/09/11 03:59:05;;;;;;;10.40;7.77;;;16.80;99.90;;;;;;4183877;28;20232;-75
2023/09/11 04:01:07;;;;;;;11.83;8.23;;;16.80;99.90;;;;;;4186465;28;20271;-75
2023/09/11 04:03:09;;;;;;;11.67;7.83;;;16.80;99.90;;;;;;4186566;28;20208;-75
2023/09/11 04:05:11;;;;;;;10.63;8.00;;;16.70;99.90;;;;;;4187990;28;20213;-75
2023/09/11 04:07:13;;;;;;;9.97;7.37;;;16.70;99.90;;;;;;4188940;28;20204;-77
2023/09/11 04:09:15;;;;;;;13.07;7.83;;;16.70;99.90;;;;;;4186423;28;20289;-75
2023/09/11 04:11:17;;;;;;;13.67;7.40;;;16.70;99.90;;;;;;4197142;28;20681;-75
2023/09/11 04:13:20;;;;;;;11.40;7.87;;;16.70;99.90;;;;;;4204977;28;20278;-76
2023/09/11 04:15:22;;;;;;;10.47;8.07;;;16.60;99.90;;;;;;4202415;28;20234;-75
2023/09/11 04:17:24;;;;;;;13.07;8.27;;;16.60;99.90;;;;;;4200648;28;20213;-75
2023/09/11 04:19:26;;;;;;;11.30;7.77;;;16.60;99.90;;;;;;4179513;28;20236;-75
2023/09/11 04:21:28;;;;;;;10.80;7.90;;;16.60;99.90;;;;;;4205935;28;20268;-75
2023/09/11 04:23:30;;;;;;;12.23;8.03;;;16.60;99.90;;;;;;4202791;28;20212;-75
2023/09/11 04:25:33;;;;;;;11.63;7.90;;;16.60;99.90;;;;;;4202178;28;20778;-75
2023/09/11 04:27:35;;;;;;;13.47;7.73;;;16.60;99.90;;;;;;4207779;28;20215;-75
2023/09/11 04:29:38;;;;;;;11.53;7.47;;;16.60;99.90;;;;;;4200856;28;20228;-77
2023/09/11 04:31:40;;;;;;;12.60;8.23;;;16.50;99.90;;;;;;4206326;28;20260;-75
2023/09/11 04:33:42;;;;;;;10.40;8.10;;;16.50;99.90;;;;;;4207393;28;20281;-76
2023/09/11 04:35:44;;;;;;;12.70;8.47;;;16.50;99.90;;;;;;4204167;28;20198;-76
2023/09/11 04:37:46;;;;;;;12.57;8.20;;;16.50;99.90;;;;;;4207105;28;20572;-75
2023/09/11 04:39:48;;;;;;;11.87;8.13;;;16.50;99.90;;;;;;4203173;28;20692;-75
2023/09/11 04:41:50;;;;;;;11.80;8.27;;;16.50;99.90;;;;;;4204911;28;20723;-75
2023/09/11 04:43:52;;;;;;;14.23;8.47;;;16.40;99.90;;;;;;4205301;28;20923;-76
2023/09/11 04:45:55;;;;;;;15.33;9.10;;;16.50;99.90;;;;;;4203927;28;20227;-76
2023/09/11 04:47:57;;;;;;;16.40;8.80;;;16.50;99.90;;;;;;4204096;28;20211;-76
2023/09/11 04:49:59;;;;;;;12.67;8.43;;;16.40;99.90;;;;;;4201404;28;20230;-75
2023/09/11 04:52:01;;;;;;;12.23;8.37;;;16.40;99.90;;;;;;4201496;28;20672;-76
2023/09/11 04:54:03;;;;;;;11.73;8.63;;;16.40;99.90;;;;;;4206274;28;20545;-76
2023/09/11 04:56:05;;;;;;;20.27;8.43;;;16.40;99.90;;;;;;4204646;28;20203;-76
2023/09/11 04:58:07;;;;;;;13.60;9.00;;;16.40;99.90;;;;;;4205292;28;20210;-76
2023/09/11 05:00:09;;;;;;;18.33;8.97;;;16.40;99.90;;;;;;4204081;28;20222;-76
2023/09/11 05:02:12;;;;;;;16.70;9.07;;;16.50;99.90;;;;;;4205087;28;20215;-76
2023/09/11 05:04:14;;;;;;;13.67;8.70;;;16.40;99.90;;;;;;4207196;28;20214;-76
2023/09/11 05:06:16;;;;;;;13.83;8.20;;;16.40;99.90;;;;;;4204880;28;20278;-76
2023/09/11 05:08:17;;;;;;;14.43;9.40;;;16.40;99.90;;;;;;4202080;28;20237;-75
2023/09/11 05:10:19;;;;;;;14.97;9.10;;;16.40;99.90;;;;;;4203562;28;20195;-75
2023/09/11 05:12:20;;;;;;;12.10;8.43;;;16.40;99.90;;;;;;4204722;28;20605;-76
2023/09/11 05:14:22;;;;;;;12.63;8.67;;;16.40;99.90;;;;;;4201857;28;20199;-76
2023/09/11 05:16:24;;;;;;;12.20;8.77;;;16.50;99.90;;;;;;4201772;28;20223;-76
2023/09/11 05:18:26;;;;;;;15.70;9.10;;;16.40;99.90;;;;;;4206284;28;20276;-76
2023/09/11 05:20:28;;;;;;;13.37;9.00;;;16.50;99.90;;;;;;4201984;28;20226;-76
2023/09/11 05:22:30;;;;;;;14.50;9.47;;;16.40;99.90;;;;;;4204064;28;20669;-76
2023/09/11 05:24:33;;;;;;;18.10;10.20;;;16.40;99.90;;;;;;4206686;28;20207;-79
2023/09/11 05:26:35;;;;;;;14.70;9.20;;;16.40;99.90;;;;;;4205973;28;20229;-78
2023/09/11 05:28:37;;;;;;;14.33;8.70;;;16.40;99.90;;;;;;4203287;28;20371;-76
2023/09/11 05:30:42;;;;;;;15.83;8.80;;;16.40;99.90;;;;;;4205062;28;20207;-76
2023/09/11 05:32:43;;;;;;;13.77;8.67;;;16.40;99.90;;;;;;4192918;28;20255;-76
2023/09/11 05:34:46;;;;;;;15.43;9.23;;;16.40;99.90;;;;;;4211996;28;20641;-76
2023/09/11 05:36:48;;;;;;;13.47;8.43;;;16.40;99.90;;;;;;4199694;28;20250;-77
2023/09/11 05:38:50;;;;;;;15.97;9.80;;;16.50;99.90;;;;;;4186012;28;20236;-76
2023/09/11 05:40:55;;;;;;;13.80;9.40;;;16.50;99.90;;;;;;4203836;28;20207;-77
2023/09/11 05:42:56;;;;;;;13.60;9.10;;;16.50;99.90;;;;;;4209016;28;20305;-76
2023/09/11 05:44:58;;;;;;;15.10;8.90;;;16.50;99.90;;;;;;4204974;28;20730;-74
2023/09/11 05:47:03;;;;;;;13.27;8.40;;;16.50;99.90;;;;;;4199415;28;20700;-75
2023/09/11 05:49:05;;;;;;;13.70;8.90;;;16.50;99.90;;;;;;4202626;28;20222;-75
2023/09/11 05:51:08;;;;;;;12.83;8.60;;;16.50;99.90;;;;;;4203900;28;20205;-78
2023/09/11 05:53:10;;;;;;;14.20;8.50;;;16.60;99.90;;;;;;4205939;28;20202;-75
2023/09/11 05:55:12;;;;;;;12.50;8.53;;;16.60;99.90;;;;;;4204935;28;20268;-75
2023/09/11 05:57:14;;;;;;;16.37;9.17;;;16.60;99.90;;;;;;4205399;28;20260;-76
2023/09/11 05:59:18;;;;;;;11.63;8.60;;;16.60;99.90;;;;;;4204170;28;20228;-76
2023/09/11 06:01:20;;;;;;;14.27;9.50;;;16.60;99.90;;;;;;4205342;28;20211;-75
2023/09/11 06:03:21;;;;;;;15.87;9.13;;;16.60;99.90;;;;;;4187606;28;20302;-75
2023/09/11 06:05:25;;;;;;;15.60;9.43;;;16.70;99.90;;;;;;4204603;28;20206;-75
2023/09/11 06:07:28;;;;;;;14.97;9.87;;;16.70;99.90;;;;;;4189603;28;20243;-76
2023/09/11 06:09:30;;;;;;;16.03;9.23;;;16.70;99.90;;;;;;4205336;28;20231;-76
2023/09/11 06:11:32;;;;;;;15.07;9.70;;;16.70;99.90;;;;;;4189218;28;20207;-75
2023/09/11 06:13:35;;;;;;;14.80;8.53;;;16.70;99.90;;;;;;4206229;28;20224;-74
2023/09/11 06:15:37;;;;;;;14.87;9.60;;;16.70;99.90;;;;;;4204854;28;20207;-75
2023/09/11 06:17:39;;;;;;;16.90;9.60;;;16.70;99.90;;;;;;4202060;28;20238;-76
2023/09/11 06:19:43;;;;;;;14.87;9.17;;;16.70;99.90;;;;;;4200249;28;20301;-75
2023/09/11 06:21:45;;;;;;;12.27;8.87;;;16.70;99.90;;;;;;4208747;28;20192;-76
2023/09/11 06:23:49;;;;;;;14.03;9.57;;;16.70;99.90;;;;;;4207486;28;20216;-77
2023/09/11 06:25:51;;;;;;;15.33;9.30;;;16.70;99.90;;;;;;4200773;28;20941;-75
2023/09/11 06:27:53;;;;;;;14.53;8.70;;;16.70;99.90;;;;;;4211287;28;20234;-75
2023/09/11 06:29:55;;;;;;;14.47;8.67;;;16.70;99.90;;;;;;4203174;28;20230;-75
2023/09/11 06:31:56;;;;;;;17.47;8.83;;;16.70;99.90;;;;;;4203644;28;20206;-75
2023/09/11 06:33:58;;;;;;;15.43;10.57;;;16.80;99.90;;;;;;4205151;28;20199;-75
2023/09/11 06:36:00;;;;;;;14.23;9.60;;;16.80;99.90;;;;;;4206805;28;20211;-76
2023/09/11 06:38:02;;;;;;;14.47;9.43;;;16.90;99.90;;;;;;4188452;28;20240;-76
2023/09/11 06:40:07;;;;;;;19.50;11.23;;;16.90;99.90;;;;;;4207030;28;20224;-76
2023/09/11 06:42:09;;;;;;;16.80;10.00;;;16.90;99.90;;;;;;4197028;28;20205;-75
2023/09/11 06:44:11;;;;;;;16.10;10.70;;;17.00;99.90;;;;;;4206660;28;20205;-75
2023/09/11 06:46:13;;;;;;;18.23;10.60;;;17.00;99.90;;;;;;4199722;28;20268;-77
2023/09/11 06:48:14;;;;;;;15.27;9.87;;;17.00;99.90;;;;;;4205746;28;20210;-75
2023/09/11 06:50:16;;;;;;;27.10;16.77;;;17.00;99.90;;;;;;4203502;28;20231;-75
2023/09/11 06:52:20;;;;;;;18.43;12.47;;;17.10;99.90;;;;;;4203054;28;20589;-79
2023/09/11 06:54:23;;;;;;;16.67;10.97;;;17.10;99.90;;;;;;4204848;28;20203;-75
2023/09/11 06:56:26;;;;;;;17.03;10.87;;;17.10;99.90;;;;;;4206891;28;20199;-75
2023/09/11 06:58:28;;;;;;;15.00;9.50;;;17.10;99.90;;;;;;4204204;28;20253;-74
2023/09/11 07:00:30;;;;;;;19.57;12.60;;;17.20;99.90;;;;;;4206553;28;20206;-75
2023/09/11 07:02:32;;;;;;;17.83;11.50;;;17.20;99.90;;;;;;4203902;28;20210;-75
2023/09/11 07:04:34;;;;;;;16.43;10.07;;;17.20;99.90;;;;;;4206109;28;20206;-76
2023/09/11 07:06:35;;;;;;;18.00;10.10;;;17.30;99.90;;;;;;4198571;28;20229;-75
2023/09/11 07:08:37;;;;;;;19.63;10.97;;;17.30;99.90;;;;;;4202274;28;20220;-75
2023/09/11 07:10:39;;;;;;;18.03;10.03;;;17.40;99.90;;;;;;4202022;28;20203;-75
2023/09/11 07:12:41;;;;;;;18.73;9.90;;;17.50;99.90;;;;;;4204418;28;20248;-75
2023/09/11 07:14:43;;;;;;;23.97;14.47;;;17.50;99.90;;;;;;4203510;28;20266;-75
2023/09/11 07:16:45;;;;;;;31.17;17.47;;;17.50;99.90;;;;;;4205198;28;20213;-74
2023/09/11 07:18:47;;;;;;;21.23;12.33;;;17.60;99.90;;;;;;4208966;28;20229;-76
2023/09/11 07:20:51;;;;;;;17.60;10.37;;;17.60;99.90;;;;;;4202248;28;20205;-75
2023/09/11 07:22:53;;;;;;;16.67;11.17;;;17.70;99.90;;;;;;4208354;28;20263;-75
2023/09/11 07:24:55;;;;;;;19.33;11.37;;;17.70;99.90;;;;;;4208985;28;20276;-75
2023/09/11 07:26:57;;;;;;;17.57;10.47;;;17.80;99.90;;;;;;4211544;28;20234;-77
2023/09/11 07:29:05;;;;;;;18.17;10.70;;;17.80;99.90;;;;;;4212255;28;20338;-74
2023/09/11 07:31:06;;;;;;;16.23;9.63;;;17.90;99.90;;;;;;4209291;28;20200;-74
2023/09/11 07:33:12;;;;;;;16.53;10.33;;;17.90;99.90;;;;;;4207849;28;20207;-77
2023/09/11 07:35:17;;;;;;;18.17;10.43;;;18.00;99.90;;;;;;4204737;28;20197;-75
2023/09/11 07:37:19;;;;;;;14.10;9.83;;;18.10;99.90;;;;;;4206358;28;20201;-75
2023/09/11 07:39:27;;;;;;;21.37;10.80;;;18.10;99.90;;;;;;4205696;28;20930;-75
2023/09/11 07:41:33;;;;;;;16.10;10.27;;;18.20;99.90;;;;;;4206523;28;20201;-75
2023/09/11 07:43:35;;;;;;;17.47;9.83;;;18.30;99.90;;;;;;4209383;28;20213;-75
2023/09/11 07:45:38;;;;;;;18.13;10.77;;;18.30;99.90;;;;;;4206942;28;20254;-75
2023/09/11 07:47:40;;;;;;;16.33;10.00;;;18.40;99.90;;;;;;4203210;28;20638;-76
2023/09/11 07:49:46;;;;;;;18.60;9.70;;;18.40;99.90;;;;;;4202243;28;20221;-76
2023/09/11 07:51:48;;;;;;;13.77;9.30;;;18.50;99.90;;;;;;4201752;28;20205;-76
2023/09/11 07:53:50;;;;;;;15.50;9.23;;;18.50;99.90;;;;;;4209517;28;20206;-76
2023/09/11 07:55:51;;;;;;;16.20;9.10;;;18.60;99.90;;;;;;4208822;28;20209;-75
2023/09/11 07:57:53;;;;;;;14.43;9.30;;;18.70;99.90;;;;;;4207570;28;20205;-76
2023/09/11 08:00:04;;;;;;;13.80;9.23;;;18.70;99.90;;;;;;4207811;28;20229;-76
2023/09/11 08:02:07;;;;;;;13.57;8.47;;;18.80;99.90;;;;;;4207343;28;20546;-76
2023/09/11 08:04:09;;;;;;;16.23;8.83;;;18.80;99.90;;;;;;4202742;28;20287;-76
2023/09/11 08:06:11;;;;;;;16.47;9.33;;;18.90;99.90;;;;;;4203552;28;20206;-76
2023/09/11 08:08:16;;;;;;;12.97;8.33;;;18.90;99.90;;;;;;4205832;28;20233;-76
2023/09/11 08:10:19;;;;;;;16.37;9.00;;;19.00;99.90;;;;;;4204436;28;20208;-75
2023/09/11 08:12:21;;;;;;;12.87;8.47;;;19.00;99.90;;;;;;4204350;28;20247;-75
2023/09/11 08:14:23;;;;;;;17.40;8.87;;;19.10;99.90;;;;;;4205854;28;20228;-76
2023/09/11 08:16:25;;;;;;;18.20;9.47;;;19.20;99.90;;;;;;4207058;28;20213;-75
2023/09/11 08:18:28;;;;;;;12.23;8.43;;;19.20;99.90;;;;;;4206153;28;20229;-76
2023/09/11 08:20:30;;;;;;;13.50;8.90;;;19.30;99.90;;;;;;4202622;28;20247;-76
2023/09/11 08:22:32;;;;;;;14.93;8.53;;;19.40;99.90;;;;;;4210145;28;20205;-76
2023/09/11 08:24:33;;;;;;;11.67;7.87;;;19.50;99.90;;;;;;4205460;28;20617;-76
2023/09/11 08:26:36;;;;;;;11.30;7.60;;;19.50;99.90;;;;;;4209303;28;20198;-76
2023/09/11 08:28:42;;;;;;;14.70;8.50;;;19.60;99.90;;;;;;4201460;28;20263;-77
2023/09/11 08:30:44;;;;;;;14.03;8.00;;;19.70;99.90;;;;;;4205036;28;20729;-76
2023/09/11 08:32:50;;;;;;;11.57;7.87;;;19.80;99.90;;;;;;4205951;28;20259;-76
2023/09/11 08:34:53;;;;;;;12.83;7.60;;;19.90;99.90;;;;;;4204833;28;20209;-76
2023/09/11 08:36:55;;;;;;;11.57;7.50;;;19.90;99.90;;;;;;4206107;28;20209;-75
2023/09/11 08:38:57;;;;;;;11.70;7.63;;;20.00;99.90;;;;;;4205464;28;20244;-76
2023/09/11 08:40:59;;;;;;;16.33;8.13;;;20.00;99.90;;;;;;4207584;28;20295;-76
2023/09/11 08:43:02;;;;;;;13.43;7.60;;;20.10;99.90;;;;;;4204442;28;20251;-76
2023/09/11 08:45:03;;;;;;;11.30;7.80;;;20.10;99.90;;;;;;4203928;28;20371;-76
2023/09/11 08:47:07;;;;;;;12.60;8.10;;;20.20;99.90;;;;;;4203141;28;20642;-77
2023/09/11 08:49:12;;;;;;;11.23;7.00;;;20.20;99.90;;;;;;4206057;28;20285;-76
2023/09/11 08:51:22;;;;;;;16.97;7.63;;;20.30;99.90;;;;;;4204895;28;20775;-75
2023/09/11 08:53:26;;;;;;;10.33;7.13;;;20.40;99.90;;;;;;4188767;28;20205;-77
2023/09/11 08:55:30;;;;;;;14.20;7.53;;;20.50;99.90;;;;;;4205451;28;20255;-75
2023/09/11 08:57:32;;;;;;;12.70;7.67;;;20.60;99.90;;;;;;4205392;28;20738;-77
2023/09/11 08:59:38;;;;;;;10.53;6.80;;;20.60;99.90;;;;;;4204922;28;20229;-75
2023/09/11 09:01:42;;;;;;;12.10;7.10;;;20.70;99.90;;;;;;4187551;28;20245;-77
2023/09/11 09:03:44;;;;;;;10.53;6.57;;;20.80;99.90;;;;;;4203604;28;20199;-76
2023/09/11 09:05:47;;;;;;;9.43;6.50;;;20.80;99.90;;;;;;4207291;28;20200;-75
2023/09/11 09:07:52;;;;;;;14.37;6.73;;;20.90;99.90;;;;;;4202755;28;20284;-76
2023/09/11 09:09:55;;;;;;;13.67;6.57;;;21.00;99.90;;;;;;4206089;28;20232;-76
2023/09/11 09:11:58;;;;;;;9.87;6.20;;;21.10;99.90;;;;;;4205042;28;20204;-76
2023/09/11 09:14:01;;;;;;;8.73;6.50;;;21.20;99.90;;;;;;4187084;28;20209;-76
2023/09/11 09:16:03;;;;;;;11.17;6.13;;;21.20;99.90;;;;;;4205136;28;20213;-76
2023/09/11 09:18:09;;;;;;;9.70;6.30;;;21.40;99.90;;;;;;4202396;28;20598;-76
2023/09/11 09:20:12;;;;;;;12.30;6.50;;;21.50;99.90;;;;;;4198601;28;20254;-75
2023/09/11 09:22:14;;;;;;;10.43;6.40;;;21.50;99.90;;;;;;4198389;28;20277;-76
2023/09/11 09:24:18;;;;;;;10.27;6.43;;;21.60;99.90;;;;;;4198561;28;20232;-75
2023/09/11 09:26:20;;;;;;;8.27;5.93;;;21.70;99.90;;;;;;4203860;28;20281;-75
2023/09/11 09:28:28;;;;;;;8.80;5.97;;;21.80;99.90;;;;;;4203231;28;20247;-76
2023/09/11 09:30:32;;;;;;;12.57;5.97;;;22.00;99.90;;;;;;4201563;28;20929;-76
2023/09/11 09:32:34;;;;;;;11.03;6.47;;;22.10;99.90;;;;;;4202089;28;20215;-76
2023/09/11 09:34:37;;;;;;;10.77;6.30;;;22.20;99.90;;;;;;4207755;28;20666;-76
2023/09/11 09:36:49;;;;;;;11.03;6.27;;;22.30;99.90;;;;;;4207003;28;20198;-76
2023/09/11 09:38:52;;;;;;;11.63;5.83;;;22.40;99.90;;;;;;4207423;28;20248;-76
2023/09/11 09:40:55;;;;;;;10.70;6.07;;;22.50;99.90;;;;;;4186443;28;20625;-76
2023/09/11 09:42:59;;;;;;;13.10;6.40;;;22.60;99.90;;;;;;4207502;28;20270;-77
2023/09/11 09:45:01;;;;;;;9.90;6.30;;;22.80;99.90;;;;;;4205291;28;20208;-76
2023/09/11 09:47:08;;;;;;;11.07;5.80;;;22.90;99.90;;;;;;4206408;28;20197;-76
2023/09/11 09:49:09;;;;;;;13.00;6.60;;;23.10;99.90;;;;;;4205828;28;20251;-76
2023/09/11 09:51:11;;;;;;;10.00;6.73;;;23.20;99.90;;;;;;4203811;28;20201;-76
2023/09/11 09:53:20;;;;;;;10.97;6.37;;;23.40;99.90;;;;;;4188761;28;20221;-76
2023/09/11 09:55:22;;;;;;;10.97;6.30;;;23.60;99.90;;;;;;4203775;28;20737;-76
2023/09/11 09:57:32;;;;;;;9.07;5.57;;;23.70;99.90;;;;;;4206797;28;20717;-76
2023/09/11 09:59:36;;;;;;;11.20;5.60;;;23.80;99.90;;;;;;4204871;28;20228;-77
2023/09/11 10:01:45;;;;;;;10.27;5.80;;;23.90;99.90;;;;;;4203158;28;20544;-76
2023/09/11 10:03:50;;;;;;;12.87;6.30;;;24.00;99.90;;;;;;4204898;28;20262;-77
2023/09/11 10:05:52;;;;;;;9.90;5.97;;;24.10;99.90;;;;;;4205392;28;20205;-76
2023/09/11 10:07:59;;;;;;;10.77;6.03;;;24.30;99.90;;;;;;4203028;28;20632;-76
2023/09/11 10:10:20;;;;;;;10.93;6.10;;;24.30;99.90;;;;;;4204184;28;20294;-77
2023/09/11 10:12:22;;;;;;;10.67;6.10;;;24.50;99.90;;;;;;4203040;28;20235;-76
2023/09/11 10:14:28;;;;;;;11.67;5.57;;;24.60;99.90;;;;;;4205632;28;20205;-77
2023/09/11 10:16:31;;;;;;;9.17;5.60;;;24.70;99.90;;;;;;4203136;28;20678;-76
2023/09/11 10:18:36;;;;;;;11.87;5.93;;;24.80;99.90;;;;;;4190359;28;20579;-76
2023/09/11 10:20:38;;;;;;;12.20;6.07;;;24.80;99.90;;;;;;4189958;28;20831;-77
2023/09/11 10:22:40;;;;;;;9.97;6.07;;;25.00;99.90;;;;;;4204299;28;20208;-77
2023/09/11 10:24:42;;;;;;;11.33;5.47;;;25.00;99.90;;;;;;4204688;28;20220;-75
2023/09/11 10:26:47;;;;;;;9.03;5.27;;;25.20;99.90;;;;;;4208274;28;20810;-77
2023/09/11 10:28:51;;;;;;;8.40;5.80;;;25.30;99.90;;;;;;4202396;28;20312;-78
2023/09/11 10:31:02;;;;;;;12.67;5.50;;;25.40;99.90;;;;;;4202833;28;20197;-77
2023/09/11 10:33:12;;;;;;;7.07;5.30;;;25.60;99.90;;;;;;4206508;28;20667;-76